createdAt,value
2019-01-11T00:03:43.191Z,100654.41
2019-01-11T00:06:12.705Z,100651.73
2019-01-11T00:08:42.013Z,100646.89
2019-01-11T00:11:11.390Z,100641.56
2019-01-11T00:13:40.889Z,100638.45
2019-01-11T00:16:10.229Z,100632.30
2019-01-11T00:18:39.870Z,100624.88
2019-01-11T00:21:09.187Z,100624.83
2019-01-11T00:23:38.600Z,100608.64
2019-01-11T00:26:07.896Z,100613.78
2019-01-11T00:28:37.341Z,100604.62
2019-01-11T00:31:06.668Z,100569.87
2019-01-11T00:33:36.118Z,100590.64
2019-01-11T00:36:05.436Z,100579.64
2019-01-11T00:38:34.804Z,100582.27
2019-01-11T00:41:04.110Z,100576.53
2019-01-11T00:43:52.449Z,100561.64
2019-01-11T00:46:33.691Z,100552.87
2019-01-11T00:49:03.291Z,100546.31
2019-01-11T00:51:32.610Z,100499.62
2019-01-11T00:54:02.065Z,100532.30
2019-01-11T00:56:31.371Z,100516.91
2019-01-11T00:59:00.951Z,100526.19
2019-01-11T01:01:30.254Z,100528.27
2019-01-11T01:03:59.734Z,100527.89
2019-01-11T01:06:29.038Z,100528.27
2019-01-11T01:08:58.453Z,100527.73
2019-01-11T01:11:47.168Z,100535.53
2019-01-11T01:14:16.466Z,100532.00
2019-01-11T01:16:45.935Z,100535.43
2019-01-11T01:19:20.001Z,100499.31
2019-01-11T01:21:46.335Z,100538.34
2019-01-11T01:24:15.645Z,100535.17
2019-01-11T01:26:45.186Z,100522.02
2019-01-11T01:29:14.470Z,100503.20
2019-01-11T01:31:43.969Z,100503.69
2019-01-11T01:34:32.440Z,100459.20
2019-01-11T01:37:01.754Z,100509.20
2019-01-11T01:39:31.223Z,100499.11
2019-01-11T01:42:00.542Z,100444.30
2019-01-11T01:47:30.505Z,100438.95
2019-01-11T01:49:59.832Z,100469.57
2019-01-11T01:52:29.311Z,100458.73
2019-01-11T01:54:58.655Z,100460.14
2019-01-11T01:57:28.235Z,100454.13
2019-01-11T01:59:57.700Z,100458.95
2019-01-11T02:02:27.201Z,100463.41
2019-01-11T02:04:56.503Z,100463.62
2019-01-11T02:07:26.195Z,100458.09
2019-01-11T02:09:55.531Z,100466.11
2019-01-11T02:12:25.145Z,100461.81
2019-01-11T02:14:54.476Z,100462.73
2019-01-11T02:17:24.161Z,100469.05
2019-01-11T02:19:53.472Z,100458.63
2019-01-11T02:22:23.124Z,100466.06
2019-01-11T02:24:52.503Z,100461.35
2019-01-11T02:27:22.146Z,100463.20
2019-01-11T02:29:51.456Z,100456.53
2019-01-11T02:32:21.137Z,100465.06
2019-01-11T02:34:50.420Z,100373.24
2019-01-11T02:37:20.022Z,100470.11
2019-01-11T02:39:49.417Z,100462.75
2019-01-11T02:42:19.127Z,100462.08
2019-01-11T02:44:48.424Z,100455.20
2019-01-11T02:47:18.248Z,100444.98
2019-01-11T02:49:47.557Z,100445.97
2019-01-11T02:52:17.222Z,100442.66
2019-01-11T02:54:46.524Z,100425.44
2019-01-11T02:57:16.118Z,100434.69
2019-01-11T02:59:45.414Z,100432.23
2019-01-11T03:02:15.070Z,100426.16
2019-01-11T03:04:44.363Z,100374.36
2019-01-11T03:07:14.210Z,100421.42
2019-01-11T03:09:43.514Z,100417.98
2019-01-11T03:12:13.239Z,100412.12
2019-01-11T03:14:42.542Z,100381.59
2019-01-11T03:17:12.208Z,100420.61
2019-01-11T03:20:00.772Z,100414.59
2019-01-11T03:22:30.071Z,100411.66
2019-01-11T03:24:59.715Z,100404.00
2019-01-11T03:27:29.026Z,100394.55
2019-01-11T03:29:58.438Z,100386.95
2019-01-11T03:32:27.725Z,100399.06
2019-01-11T03:35:16.005Z,100398.92
2019-01-11T03:37:47.366Z,100382.40
2019-01-11T03:40:17.845Z,100389.52
2019-01-11T03:42:47.501Z,100379.98
2019-01-11T03:45:56.734Z,100327.53
2019-01-11T03:48:26.313Z,100371.90
2019-01-11T03:50:55.628Z,100350.70
2019-01-11T03:53:25.126Z,100352.83
2019-01-11T03:55:54.410Z,100362.47
2019-01-11T03:58:23.889Z,100357.23
2019-01-11T04:00:53.248Z,100358.11
2019-01-11T04:05:57.453Z,100346.45
2019-01-11T04:08:26.763Z,100346.73
2019-01-11T04:10:56.313Z,100336.76
2019-01-11T04:13:30.491Z,100337.48
2019-01-11T04:15:56.952Z,100334.33
2019-01-11T04:18:31.951Z,100326.49
2019-01-11T04:21:01.356Z,100323.48
2019-01-11T04:23:31.012Z,100324.98
2019-01-11T04:26:00.321Z,100313.22
2019-01-11T04:28:29.728Z,100310.50
2019-01-11T04:31:18.349Z,100308.75
2019-01-11T04:33:47.654Z,100309.09
2019-01-11T04:36:17.211Z,100312.20
2019-01-11T04:38:46.558Z,100301.25
2019-01-11T04:41:16.228Z,100295.39
2019-01-11T04:43:45.506Z,100256.98
2019-01-11T04:46:15.271Z,100293.48
2019-01-11T04:48:44.575Z,100292.02
2019-01-11T04:51:14.596Z,100286.89
2019-01-11T04:56:18.922Z,100280.51
2019-01-11T04:58:48.327Z,100272.66
2019-01-11T05:01:17.635Z,100276.09
2019-01-11T05:03:47.164Z,100274.16
2019-01-11T05:06:16.465Z,100270.06
2019-01-11T05:08:46.908Z,100265.98
2019-01-11T05:11:16.212Z,100261.95
2019-01-11T05:13:50.806Z,100255.30
2019-01-11T05:16:39.641Z,100239.50
2019-01-11T05:19:10.446Z,100250.88
2019-01-11T05:21:39.750Z,100244.84
2019-01-11T05:24:09.199Z,100257.09
2019-01-11T05:26:38.603Z,100253.61
2019-01-11T05:29:08.007Z,100250.07
2019-01-11T05:31:37.332Z,100242.22
2019-01-11T05:34:06.947Z,100237.91
2019-01-11T05:36:36.240Z,100236.16
2019-01-11T05:39:08.709Z,100239.61
2019-01-11T05:41:38.025Z,100225.64
2019-01-11T05:44:26.248Z,100218.12
2019-01-11T05:46:55.748Z,100218.80
2019-01-11T05:49:43.919Z,100219.38
2019-01-11T05:52:24.431Z,100218.83
2019-01-11T05:54:53.916Z,100210.50
2019-01-11T05:57:23.222Z,100207.99
2019-01-11T06:00:11.774Z,100194.41
2019-01-11T06:02:41.198Z,100188.68
2019-01-11T06:05:11.819Z,100191.30
2019-01-11T06:07:49.216Z,100186.56
2019-01-11T06:10:37.552Z,100183.56
2019-01-11T06:13:07.049Z,100183.45
2019-01-11T06:18:24.729Z,100181.61
2019-01-11T06:20:54.195Z,100178.81
2019-01-11T06:23:23.501Z,100181.44
2019-01-11T06:25:53.167Z,100163.17
2019-01-11T06:28:22.469Z,100169.27
2019-01-11T06:30:52.235Z,100161.87
2019-01-11T06:33:21.616Z,100159.67
2019-01-11T06:35:51.682Z,100164.09
2019-01-11T06:38:21.007Z,100171.45
2019-01-11T06:40:50.482Z,100166.33
2019-01-11T06:43:19.768Z,100166.38
2019-01-11T06:45:49.226Z,100171.20
2019-01-11T06:51:25.097Z,100187.53
2019-01-11T06:53:54.418Z,100186.88
2019-01-11T06:56:23.798Z,100178.53
2019-01-11T06:58:53.216Z,100172.26
2019-01-11T07:01:22.580Z,100154.86
2019-01-11T07:04:10.791Z,100170.48
2019-01-11T07:06:40.391Z,100170.66
2019-01-11T07:09:10.180Z,100171.23
2019-01-11T07:11:58.813Z,100174.61
2019-01-11T07:14:28.237Z,100187.20
2019-01-11T07:16:57.534Z,100190.73
2019-01-11T07:19:27.004Z,100186.12
2019-01-11T07:22:15.350Z,100146.17
2019-01-11T07:27:21.232Z,100192.87
2019-01-11T07:29:50.729Z,100202.52
2019-01-11T07:34:56.327Z,100200.20
2019-01-11T07:37:25.894Z,100197.70
2019-01-11T07:39:55.211Z,100201.95
2019-01-11T07:45:01.196Z,100187.75
2019-01-11T07:47:30.500Z,100143.20
2019-01-11T07:49:59.826Z,100177.51
2019-01-11T07:52:29.376Z,100127.85
2019-01-11T07:54:59.457Z,100181.52
2019-01-11T07:57:30.053Z,100188.98
2019-01-11T07:59:59.554Z,100183.69
2019-01-11T08:02:28.933Z,100189.11
2019-01-11T08:04:58.283Z,100194.10
2019-01-11T08:07:27.594Z,100197.61
2019-01-11T08:10:15.926Z,100203.09
2019-01-11T08:12:45.250Z,100203.78
2019-01-11T08:18:10.056Z,100205.27
2019-01-11T08:20:39.383Z,100214.50
2019-01-11T08:26:02.499Z,100224.86
2019-01-11T08:31:08.799Z,100225.10
2019-01-11T08:36:28.016Z,100231.14
2019-01-11T08:38:57.392Z,100236.71
2019-01-11T08:41:26.685Z,100208.31
2019-01-11T08:43:56.177Z,100244.03
2019-01-11T08:46:25.465Z,100214.63
2019-01-11T08:48:55.401Z,100257.40
2019-01-11T08:51:24.699Z,100255.49
2019-01-11T08:53:54.274Z,100264.03
2019-01-11T08:56:23.591Z,100276.09
2019-01-11T08:58:53.187Z,100275.58
2019-01-11T09:01:22.492Z,100286.87
2019-01-11T09:03:52.196Z,100280.31
2019-01-11T09:06:21.471Z,100251.20
2019-01-11T09:08:51.039Z,100286.33
2019-01-11T09:11:20.380Z,100282.81
2019-01-11T09:13:49.889Z,100288.77
2019-01-11T09:16:20.783Z,100296.98
2019-01-11T09:18:54.250Z,100304.58
2019-01-11T09:21:23.842Z,100222.84
2019-01-11T09:23:53.218Z,100293.90
2019-01-11T09:26:22.872Z,100300.23
2019-01-11T09:28:52.184Z,100304.81
2019-01-11T09:31:21.800Z,100290.69
2019-01-11T09:33:51.252Z,100291.33
2019-01-11T09:36:20.670Z,100286.77
2019-01-11T09:39:08.916Z,100298.18
2019-01-11T09:41:38.233Z,100301.57
2019-01-11T09:44:07.835Z,100309.31
2019-01-11T09:46:37.127Z,100302.31
2019-01-11T09:49:07.094Z,100307.62
2019-01-11T09:51:55.375Z,100303.75
2019-01-11T09:54:36.823Z,100283.72
2019-01-11T09:57:06.138Z,100313.69
2019-01-11T09:59:35.443Z,100318.75
2019-01-11T10:02:23.653Z,100318.63
2019-01-11T10:04:53.003Z,100319.30
2019-01-11T10:07:41.278Z,100312.67
2019-01-11T10:10:33.291Z,100220.08
2019-01-11T10:13:02.614Z,100302.91
2019-01-11T10:15:32.116Z,100301.98
2019-01-11T10:18:01.440Z,100304.02
2019-01-11T10:20:30.965Z,100296.08
2019-01-11T10:23:00.340Z,100302.56
2019-01-11T10:25:29.942Z,100307.05
2019-01-11T10:27:59.247Z,100305.33
2019-01-11T10:30:28.748Z,100309.72
2019-01-11T10:32:58.153Z,100318.84
2019-01-11T10:35:27.557Z,100316.21
2019-01-11T10:37:56.888Z,100318.32
2019-01-11T10:40:26.216Z,100311.34
2019-01-11T10:43:14.705Z,100316.87
2019-01-11T10:48:32.477Z,100266.38
2019-01-11T10:51:01.814Z,100319.08
2019-01-11T10:53:31.139Z,100318.66
2019-01-11T10:56:00.558Z,100323.64
2019-01-11T10:58:29.869Z,100324.05
2019-01-11T11:01:18.255Z,100263.95
2019-01-11T11:03:47.669Z,100323.05
2019-01-11T11:06:17.003Z,100313.12
2019-01-11T11:08:46.347Z,100312.61
2019-01-11T11:11:16.796Z,100323.50
2019-01-11T11:13:46.797Z,100315.16
2019-01-11T11:16:16.082Z,100322.98
2019-01-11T11:18:45.417Z,100324.81
2019-01-11T11:24:03.135Z,100325.61
2019-01-11T11:26:32.451Z,100329.55
2019-01-11T11:29:01.764Z,100326.13
2019-01-11T11:31:31.079Z,100316.03
2019-01-11T11:34:00.382Z,100311.30
2019-01-11T11:36:29.687Z,100312.38
2019-01-11T11:38:59.358Z,100315.00
2019-01-11T11:41:28.721Z,100299.23
2019-01-11T11:43:58.342Z,100312.89
2019-01-11T11:46:27.681Z,100249.86
2019-01-11T11:48:57.218Z,100329.17
2019-01-11T11:51:26.518Z,100280.92
2019-01-11T11:53:55.970Z,100329.59
2019-01-11T11:56:25.353Z,100324.61
2019-01-11T11:58:54.903Z,100334.56
2019-01-11T12:01:24.218Z,100295.13
2019-01-11T12:03:53.773Z,100338.37
2019-01-11T12:06:23.085Z,100346.77
2019-01-11T12:08:52.424Z,100338.89
2019-01-11T12:14:10.032Z,100340.34
2019-01-11T12:16:39.468Z,100332.98
2019-01-11T12:19:08.752Z,100271.91
2019-01-11T12:21:38.205Z,100339.69
2019-01-11T12:24:07.505Z,100335.75
2019-01-11T12:26:36.920Z,100342.80
2019-01-11T12:29:06.413Z,100342.45
2019-01-11T12:31:35.836Z,100343.91
2019-01-11T12:34:05.127Z,100340.38
2019-01-11T12:36:35.113Z,100339.58
2019-01-11T12:39:06.305Z,100341.41
2019-01-11T12:41:35.890Z,100340.09
2019-01-11T12:44:24.295Z,100343.48
2019-01-11T12:46:53.624Z,100354.06
2019-01-11T12:49:23.232Z,100358.52
2019-01-11T12:51:54.017Z,100349.01
2019-01-11T12:54:26.133Z,100351.39
2019-01-11T12:56:55.750Z,100343.56
2019-01-11T12:59:25.111Z,100361.05
2019-01-11T13:01:54.458Z,100365.77
2019-01-11T13:04:23.763Z,100372.22
2019-01-11T13:06:53.516Z,100373.24
2019-01-11T13:12:11.374Z,100379.94
2019-01-11T13:14:41.012Z,100385.98
2019-01-11T13:17:10.305Z,100396.61
2019-01-11T13:19:39.637Z,100392.00
2019-01-11T13:24:57.288Z,100398.67
2019-01-11T13:27:26.570Z,100408.61
2019-01-11T13:29:55.882Z,100411.48
2019-01-11T13:32:25.229Z,100404.84
2019-01-11T13:34:54.538Z,100428.62
2019-01-11T13:37:23.829Z,100429.36
2019-01-11T13:39:53.343Z,100430.13
2019-01-11T13:42:22.661Z,100429.80
2019-01-11T13:44:52.378Z,100433.07
2019-01-11T13:47:21.726Z,100431.57
2019-01-11T13:49:51.570Z,100439.50
2019-01-11T13:52:20.862Z,100401.69
2019-01-11T13:54:50.593Z,100437.11
2019-01-11T13:57:19.894Z,100372.52
2019-01-11T13:59:49.268Z,100437.27
2019-01-11T14:02:18.750Z,100445.91
2019-01-11T14:04:48.346Z,100453.25
2019-01-11T14:07:17.673Z,100375.14
2019-01-11T14:09:47.107Z,100456.95
2019-01-11T14:12:16.513Z,100460.74
2019-01-11T14:14:45.945Z,100469.72
2019-01-11T14:17:15.255Z,100476.52
2019-01-11T14:19:44.624Z,100472.75
2019-01-11T14:22:13.993Z,100466.70
2019-01-11T14:24:43.298Z,100465.20
2019-01-11T14:27:12.630Z,100400.18
2019-01-11T14:29:42.095Z,100478.57
2019-01-11T14:32:11.481Z,100458.13
2019-01-11T14:34:41.082Z,100479.16
2019-01-11T14:37:10.407Z,100482.98
2019-01-11T14:39:39.849Z,100490.14
2019-01-11T14:42:28.208Z,100484.20
2019-01-11T14:44:57.492Z,100480.16
2019-01-11T14:47:29.576Z,100484.86
2019-01-11T14:49:58.931Z,100476.37
2019-01-11T14:52:28.316Z,100476.99
2019-01-11T14:58:28.729Z,100474.53
2019-01-11T15:00:56.453Z,100484.44
2019-01-11T15:03:25.806Z,100486.34
2019-01-11T15:05:55.240Z,100488.30
2019-01-11T15:08:24.584Z,100490.27
2019-01-11T15:10:53.897Z,100490.12
2019-01-11T15:13:23.193Z,100495.12
2019-01-11T15:16:11.369Z,100498.37
2019-01-11T15:21:21.260Z,100494.70
2019-01-11T15:26:39.363Z,100502.45
2019-01-11T15:29:08.655Z,100509.97
2019-01-11T15:31:38.077Z,100520.48
2019-01-11T15:34:07.431Z,100522.81
2019-01-11T15:36:36.967Z,100520.80
2019-01-11T15:39:47.600Z,100516.45
2019-01-11T15:45:06.341Z,100516.62
2019-01-11T15:47:35.611Z,100467.97
2019-01-11T15:50:06.906Z,100521.78
2019-01-11T15:52:36.224Z,100456.34
2019-01-11T16:01:00.767Z,100511.60
2019-01-11T16:06:43.602Z,100462.69
2019-01-11T16:10:09.905Z,100517.20
2019-01-11T16:13:17.324Z,100516.43
2019-01-11T16:16:24.611Z,100522.24
2019-01-11T16:18:56.081Z,100522.84
2019-01-11T16:21:25.373Z,100521.67
2019-01-11T16:23:54.881Z,100518.72
2019-01-11T16:26:43.262Z,100519.69
2019-01-11T16:29:12.582Z,100518.05
2019-01-11T16:31:42.162Z,100521.61
2019-01-11T16:34:11.517Z,100513.09
2019-01-11T16:36:41.085Z,100515.79
2019-01-11T16:39:10.501Z,100509.80
2019-01-11T16:41:39.971Z,100519.44
2019-01-11T16:44:09.257Z,100523.88
2019-01-11T16:46:38.625Z,100519.59
2019-01-11T16:49:07.967Z,100529.69
2019-01-11T16:51:37.327Z,100531.07
2019-01-11T16:54:06.658Z,100490.01
2019-01-11T16:56:55.023Z,100540.30
2019-01-11T16:59:24.580Z,100442.17
2019-01-11T17:01:53.980Z,100549.11
2019-01-11T17:04:34.950Z,100557.81
2019-01-11T17:07:04.460Z,100561.74
2019-01-11T17:09:34.069Z,100566.59
2019-01-11T17:12:03.400Z,100572.28
2019-01-11T17:14:32.920Z,100562.73
2019-01-11T17:17:02.207Z,100566.23
2019-01-11T17:22:06.831Z,100568.48
2019-01-11T17:24:55.211Z,100491.44
2019-01-11T17:27:24.550Z,100582.00
2019-01-11T17:29:54.048Z,100591.13
2019-01-11T17:32:42.564Z,100589.87
2019-01-11T17:35:11.910Z,100589.95
2019-01-11T17:37:43.832Z,100589.14
2019-01-11T17:40:15.026Z,100587.41
2019-01-11T17:42:44.463Z,100590.00
2019-01-11T17:48:09.765Z,100590.95
2019-01-11T17:50:39.064Z,100591.00
2019-01-11T17:53:08.375Z,100589.31
2019-01-11T17:55:37.774Z,100598.86
2019-01-11T17:58:07.056Z,100599.78
2019-01-11T18:00:36.576Z,100593.73
2019-01-11T18:03:25.405Z,100592.48
2019-01-11T18:05:54.770Z,100589.52
2019-01-11T18:08:43.591Z,100593.88
2019-01-11T18:11:12.897Z,100588.72
2019-01-11T18:13:42.372Z,100590.06
2019-01-11T18:16:11.690Z,100579.39
2019-01-11T18:18:41.314Z,100590.56
2019-01-11T18:21:10.638Z,100601.83
2019-01-11T18:23:40.128Z,100594.08
2019-01-11T18:28:57.757Z,100595.05
2019-01-11T18:31:27.194Z,100601.58
2019-01-11T18:33:56.495Z,100564.31
2019-01-11T18:36:26.136Z,100606.81
2019-01-11T18:38:55.445Z,100612.50
2019-01-11T18:41:25.137Z,100611.20
2019-01-11T18:43:54.704Z,100610.81
2019-01-11T18:46:24.248Z,100611.27
2019-01-11T18:48:53.580Z,100531.05
2019-01-11T18:51:23.140Z,100623.44
2019-01-11T18:53:52.542Z,100619.53
2019-01-11T18:59:29.487Z,100611.30
2019-01-11T19:01:59.110Z,100599.27
2019-01-11T19:04:28.458Z,100537.52
2019-01-11T19:06:58.259Z,100611.00
2019-01-11T19:09:39.510Z,100608.86
2019-01-11T19:12:48.611Z,100610.20
2019-01-11T19:15:26.445Z,100611.11
2019-01-11T19:17:55.817Z,100614.63
2019-01-11T19:20:29.727Z,100613.80
2019-01-11T19:23:20.557Z,100576.09
2019-01-11T19:25:49.719Z,100613.00
2019-01-11T19:28:19.034Z,100607.36
2019-01-11T19:30:48.500Z,100607.84
2019-01-11T19:33:17.840Z,100605.27
2019-01-11T19:35:47.386Z,100606.97
2019-01-11T19:38:16.729Z,100566.63
2019-01-11T19:40:46.202Z,100606.55
2019-01-11T19:43:15.641Z,100617.36
2019-01-11T19:45:45.269Z,100605.69
2019-01-11T19:48:14.610Z,100604.84
2019-01-11T19:53:19.538Z,100602.76
2019-01-11T19:58:39.760Z,100606.69
2019-01-11T20:01:09.698Z,100607.13
2019-01-11T20:06:27.907Z,100607.13
2019-01-11T20:08:57.566Z,100613.23
2019-01-11T20:11:26.903Z,100546.14
2019-01-11T20:13:56.699Z,100604.53
2019-01-11T20:16:26.108Z,100558.59
2019-01-11T20:18:56.133Z,100601.12
2019-01-11T20:21:27.158Z,100594.23
2019-01-11T20:23:56.606Z,100600.34
2019-01-11T20:26:27.202Z,100603.78
2019-01-11T20:28:56.616Z,100607.30
2019-01-11T20:31:26.255Z,100609.95
2019-01-11T20:33:55.730Z,100602.20
2019-01-11T20:36:25.164Z,100600.91
2019-01-11T20:41:29.265Z,100602.24
2019-01-11T20:44:17.649Z,100598.83
2019-01-11T20:46:47.045Z,100607.91
2019-01-11T20:49:16.454Z,100602.72
2019-01-11T20:51:45.876Z,100602.24
2019-01-11T20:54:15.261Z,100608.31
2019-01-11T20:56:44.594Z,100598.83
2019-01-11T20:59:13.973Z,100601.42
2019-01-11T21:01:43.399Z,100603.13
2019-01-11T21:04:12.718Z,100603.13
2019-01-11T21:06:42.124Z,100610.50
2019-01-11T21:09:11.810Z,100613.09
2019-01-11T21:11:41.214Z,100571.39
2019-01-11T21:14:10.663Z,100607.46
2019-01-11T21:19:47.585Z,100609.23
2019-01-11T21:22:17.101Z,100603.19
2019-01-11T21:24:46.527Z,100604.08
2019-01-11T21:27:15.997Z,100611.41
2019-01-11T21:32:34.357Z,100580.08
2019-01-11T21:35:03.791Z,100612.79
2019-01-11T21:37:33.302Z,100611.95
2019-01-11T21:40:02.646Z,100570.70
2019-01-11T21:42:51.229Z,100610.66
2019-01-11T21:45:21.144Z,100615.84
2019-01-11T21:48:09.755Z,100616.28
2019-01-11T21:50:39.414Z,100608.09
2019-01-11T21:53:09.143Z,100603.31
2019-01-11T21:55:38.457Z,100567.20
2019-01-11T22:00:45.311Z,100553.32
2019-01-11T22:03:19.718Z,100495.70
2019-01-11T22:05:49.009Z,100584.98
2019-01-11T22:08:18.763Z,100576.77
2019-01-11T22:10:48.075Z,100582.37
2019-01-11T22:13:17.718Z,100576.30
2019-01-11T22:15:47.103Z,100571.95
2019-01-11T22:18:16.821Z,100571.48
2019-01-11T22:20:46.134Z,100561.08
2019-01-11T22:23:15.627Z,100561.91
2019-01-11T22:25:44.914Z,100552.83
2019-01-11T22:28:14.514Z,100546.64
2019-01-11T22:30:43.793Z,100546.61
2019-01-11T22:33:13.188Z,100552.20
2019-01-11T22:35:42.526Z,100477.94
2019-01-11T22:41:00.825Z,100552.17
2019-01-11T22:43:30.167Z,100550.02
2019-01-11T22:45:59.965Z,100542.23
2019-01-11T22:48:29.270Z,100543.53
2019-01-11T22:50:59.114Z,100536.15
2019-01-11T22:53:28.391Z,100494.14
2019-01-11T22:55:58.024Z,100543.94
2019-01-11T22:58:27.323Z,100533.99
2019-01-11T23:01:35.093Z,100537.84
2019-01-11T23:04:04.497Z,100532.14
2019-01-11T23:07:03.226Z,100535.08
2019-01-11T23:09:56.378Z,100534.98
2019-01-11T23:13:03.714Z,100529.66
2019-01-11T23:15:38.987Z,100519.09
2019-01-11T23:18:14.091Z,100516.75
2019-01-11T23:20:43.412Z,100512.18
2019-01-11T23:23:12.793Z,100512.49
2019-01-11T23:25:42.194Z,100507.09
2019-01-11T23:28:11.509Z,100471.44
2019-01-11T23:30:40.831Z,100497.18
2019-01-11T23:33:10.250Z,100493.28
2019-01-11T23:35:58.521Z,100488.94
2019-01-11T23:38:27.966Z,100484.64
2019-01-11T23:40:57.251Z,100488.97
2019-01-11T23:43:26.854Z,100490.73
2019-01-11T23:45:56.222Z,100482.95
2019-01-11T23:48:25.673Z,100473.45
2019-01-11T23:50:56.048Z,100422.03
2019-01-11T23:53:25.365Z,100415.56
2019-01-11T23:55:54.767Z,100467.87
2019-01-11T23:58:24.275Z,100458.80
